createdAt,value
2023-04-02T00:01:02.079Z,100927.91
2023-04-02T00:03:42.627Z,100935.69
2023-04-02T00:06:33.325Z,100949.50
2023-04-02T00:09:16.388Z,100945.19
2023-04-02T00:11:48.758Z,100944.31
2023-04-02T00:14:22.021Z,100940.88
2023-04-02T00:16:49.265Z,100952.13
2023-04-02T00:19:24.233Z,100950.38
2023-04-02T00:21:52.486Z,100953.81
2023-04-02T00:24:22.348Z,100961.59
2023-04-02T00:26:52.099Z,100959.88
2023-04-02T00:29:20.031Z,100974.56
2023-04-02T00:31:49.969Z,100968.50
2023-04-02T00:34:41.339Z,100966.78
2023-04-02T00:37:08.168Z,100977.13
2023-04-02T00:39:42.279Z,100978.84
2023-04-02T00:42:11.656Z,100987.50
2023-04-02T00:44:43.310Z,100990.06
2023-04-02T00:47:22.848Z,100987.50
2023-04-02T00:49:57.275Z,100994.41
2023-04-02T00:52:28.108Z,101003.03
2023-04-02T00:55:10.593Z,101003.91
2023-04-02T00:57:37.761Z,101005.63
2023-04-02T01:00:24.018Z,101009.94
2023-04-02T01:03:29.325Z,101011.66
2023-04-02T01:06:03.009Z,101012.53
2023-04-02T01:08:34.208Z,101018.56
2023-04-02T01:11:16.129Z,101022.03
2023-04-02T01:14:03.877Z,101031.50
2023-04-02T01:16:30.857Z,101030.63
2023-04-02T01:19:06.645Z,101039.28
2023-04-02T01:22:12.214Z,101040.16
2023-04-02T01:24:39.038Z,101043.59
2023-04-02T01:27:15.101Z,101036.69
2023-04-02T01:29:52.958Z,101045.34
2023-04-02T01:32:22.877Z,101051.38
2023-04-02T01:34:51.946Z,101053.09
2023-04-02T01:37:24.586Z,101059.97
2023-04-02T01:40:14.814Z,101064.28
2023-04-02T01:42:49.558Z,101062.56
2023-04-02T01:45:19.847Z,101067.72
2023-04-02T01:47:46.879Z,101074.63
2023-04-02T01:50:19.619Z,101078.13
2023-04-02T01:52:54.024Z,101079.81
2023-04-02T01:55:34.992Z,101088.47
2023-04-02T01:58:04.053Z,101097.06
2023-04-02T02:00:32.595Z,101096.19
2023-04-02T02:03:01.368Z,101103.97
2023-04-02T02:05:29.388Z,101110.03
2023-04-02T02:07:58.410Z,101120.38
2023-04-02T02:10:43.310Z,101116.06
2023-04-02T02:13:16.157Z,101120.38
2023-04-02T02:15:42.906Z,101124.69
2023-04-02T02:18:12.749Z,101129.00
2023-04-02T02:20:40.043Z,101123.84
2023-04-02T02:23:07.485Z,101134.19
2023-04-02T02:25:36.538Z,101135.91
2023-04-02T02:28:26.652Z,101145.41
2023-04-02T02:30:59.108Z,101146.25
2023-04-02T02:33:49.274Z,101154.03
2023-04-02T02:36:33.691Z,101155.75
2023-04-02T02:39:29.721Z,101161.78
2023-04-02T02:42:14.754Z,101168.66
2023-04-02T02:44:46.634Z,101170.41
2023-04-02T02:47:19.146Z,101185.94
2023-04-02T02:49:50.129Z,101183.34
2023-04-02T02:52:20.627Z,101191.13
2023-04-02T02:54:52.055Z,101187.69
2023-04-02T02:57:32.372Z,101191.13
2023-04-02T03:00:01.865Z,101193.66
2023-04-02T03:02:29.262Z,101196.28
2023-04-02T03:04:56.948Z,101199.72
2023-04-02T03:07:26.914Z,101215.28
2023-04-02T03:10:12.552Z,101214.41
2023-04-02T03:13:10.008Z,101215.25
2023-04-02T03:15:51.455Z,101221.28
2023-04-02T03:18:39.593Z,101231.63
2023-04-02T03:21:11.917Z,101235.94
2023-04-02T03:23:51.408Z,101239.41
2023-04-02T03:26:25.837Z,101242.84
2023-04-02T03:29:05.024Z,101249.75
2023-04-02T03:31:38.154Z,101256.72
2023-04-02T03:34:13.721Z,101251.53
2023-04-02T03:36:49.251Z,101257.59
2023-04-02T03:39:41.915Z,101264.50
2023-04-02T03:42:21.805Z,101262.75
2023-04-02T03:44:55.148Z,101272.25
2023-04-02T03:47:43.107Z,101269.66
2023-04-02T03:50:28.120Z,101282.63
2023-04-02T03:52:54.874Z,101286.09
2023-04-02T03:55:29.217Z,101285.25
2023-04-02T03:58:19.008Z,101295.59
2023-04-02T04:00:54.959Z,101303.38
2023-04-02T04:03:30.917Z,101305.13
2023-04-02T04:06:01.568Z,101312.03
2023-04-02T04:08:42.596Z,101313.75
2023-04-02T04:11:16.196Z,101317.19
2023-04-02T04:14:09.907Z,101325.78
2023-04-02T04:16:43.059Z,101335.34
2023-04-02T04:19:32.888Z,101334.41
2023-04-02T04:22:14.962Z,101337.88
2023-04-02T04:24:45.757Z,101342.16
2023-04-02T04:27:33.934Z,101352.50
2023-04-02T04:30:06.474Z,101360.28
2023-04-02T04:32:50.337Z,101359.44
2023-04-02T04:35:26.892Z,101363.78
2023-04-02T04:38:12.313Z,101370.69
2023-04-02T04:40:50.569Z,101366.38
2023-04-02T04:43:24.935Z,101381.91
2023-04-02T04:45:58.396Z,101384.53
2023-04-02T04:48:36.830Z,101388.81
2023-04-02T04:51:08.938Z,101394.03
2023-04-02T04:53:48.518Z,101396.63
2023-04-02T04:56:19.929Z,101397.50
2023-04-02T04:59:22.190Z,101411.31
2023-04-02T05:02:00.620Z,101412.16
2023-04-02T05:04:40.159Z,101414.75
2023-04-02T05:07:28.410Z,101430.28
2023-04-02T05:10:04.138Z,101426.81
2023-04-02T05:12:37.873Z,101432.88
2023-04-02T05:15:11.604Z,101438.97
2023-04-02T05:17:42.688Z,101436.38
2023-04-02T05:20:18.333Z,101446.75
2023-04-02T05:23:08.404Z,101452.78
2023-04-02T05:25:35.636Z,101457.97
2023-04-02T05:28:11.637Z,101466.59
2023-04-02T05:30:47.286Z,101466.63
2023-04-02T05:33:17.970Z,101472.69
2023-04-02T05:35:53.660Z,101474.38
2023-04-02T05:38:23.989Z,101483.03
2023-04-02T05:41:17.488Z,101479.59
2023-04-02T05:43:49.065Z,101485.66
2023-04-02T05:46:18.784Z,101483.97
2023-04-02T05:48:51.870Z,101493.47
2023-04-02T05:51:44.897Z,101494.38
2023-04-02T05:54:31.634Z,101503.03
2023-04-02T05:57:10.173Z,101497.81
2023-04-02T05:59:44.830Z,101507.31
2023-04-02T06:02:24.281Z,101512.53
2023-04-02T06:04:57.660Z,101515.97
2023-04-02T06:07:30.211Z,101518.63
2023-04-02T06:10:08.660Z,101535.06
2023-04-02T06:12:47.047Z,101533.31
2023-04-02T06:15:19.598Z,101538.53
2023-04-02T06:17:52.778Z,101524.75
2023-04-02T06:20:21.395Z,101542.03
2023-04-02T06:22:58.409Z,101543.78
2023-04-02T06:25:32.568Z,101549.84
2023-04-02T06:28:01.930Z,101559.38
2023-04-02T06:30:32.932Z,101569.78
2023-04-02T06:32:59.808Z,101555.91
2023-04-02T06:35:27.320Z,101565.38
2023-04-02T06:37:57.631Z,101578.34
2023-04-02T06:40:46.455Z,101577.47
2023-04-02T06:43:43.238Z,101587.84
2023-04-02T06:46:18.508Z,101588.72
2023-04-02T06:48:47.893Z,101596.50
2023-04-02T06:51:17.044Z,101602.59
2023-04-02T06:53:47.306Z,101598.34
2023-04-02T06:56:45.109Z,101608.66
2023-04-02T06:59:13.005Z,101612.16
2023-04-02T07:01:53.841Z,101613.03
2023-04-02T07:04:21.849Z,101620.81
2023-04-02T07:06:48.861Z,101622.63
2023-04-02T07:09:15.624Z,101620.03
2023-04-02T07:11:42.380Z,101631.38
2023-04-02T07:14:13.184Z,101630.53
2023-04-02T07:16:44.199Z,101638.31
2023-04-02T07:19:20.222Z,101639.19
2023-04-02T07:21:47.507Z,101632.38
2023-04-02T07:24:14.725Z,101644.44
2023-04-02T07:26:42.122Z,101636.88
2023-04-02T07:29:13.756Z,101640.28
2023-04-02T07:31:43.912Z,101645.44
2023-04-02T07:34:10.727Z,101651.44
2023-04-02T07:36:37.732Z,101653.13
2023-04-02T07:39:05.584Z,101662.66
2023-04-02T07:41:32.332Z,101659.97
2023-04-02T07:43:59.203Z,101666.91
2023-04-02T07:46:26.160Z,101667.75
2023-04-02T07:48:53.026Z,101672.97
2023-04-02T07:51:23.044Z,101679.00
2023-04-02T07:53:51.363Z,101680.94
2023-04-02T07:56:21.183Z,101676.66
2023-04-02T07:58:48.051Z,101681.03
2023-04-02T08:01:21.433Z,101685.63
2023-04-02T08:03:48.389Z,101691.84
2023-04-02T08:06:15.215Z,101698.75
2023-04-02T08:08:42.210Z,101695.28
2023-04-02T08:11:09.847Z,101698.75
2023-04-02T08:13:36.768Z,101696.97
2023-04-02T08:16:05.084Z,101700.50
2023-04-02T08:18:32.031Z,101703.09
2023-04-02T08:20:59.503Z,101707.44
2023-04-02T08:23:27.371Z,101707.41
2023-04-02T08:25:58.074Z,101710.00
2023-04-02T08:28:24.856Z,101712.63
2023-04-02T08:30:52.809Z,101714.31
2023-04-02T08:33:20.024Z,101721.34
2023-04-02T08:35:48.017Z,101720.47
2023-04-02T08:38:16.708Z,101723.91
2023-04-02T08:40:46.539Z,101719.50
2023-04-02T08:43:41.020Z,101732.25
2023-04-02T08:46:26.897Z,101733.19
2023-04-02T08:48:57.230Z,101738.63
2023-04-02T08:51:36.708Z,101737.09
2023-04-02T08:54:29.061Z,101758.31
2023-04-02T08:57:02.404Z,101749.72
2023-04-02T08:59:41.959Z,101754.31
2023-04-02T09:02:30.636Z,101773.41
2023-04-02T09:05:00.188Z,101769.88
2023-04-02T09:07:28.220Z,101775.06
2023-04-02T09:09:55.800Z,101776.72
2023-04-02T09:12:26.834Z,101788.88
2023-04-02T09:15:12.352Z,101794.91
2023-04-02T09:17:53.977Z,101780.13
2023-04-02T09:20:24.729Z,101790.50
2023-04-02T09:22:53.376Z,101796.59
2023-04-02T09:25:29.923Z,101793.13
2023-04-02T09:28:00.960Z,101796.56
2023-04-02T09:30:33.446Z,101802.63
2023-04-02T09:33:08.012Z,101806.16
2023-04-02T09:35:37.792Z,101815.75
2023-04-02T09:38:07.408Z,101816.59
2023-04-02T09:40:42.573Z,101825.28
2023-04-02T09:43:15.780Z,101834.84
2023-04-02T09:45:44.513Z,101830.53
2023-04-02T09:48:45.785Z,101843.47
2023-04-02T09:51:12.812Z,101846.94
2023-04-02T09:53:42.566Z,101847.78
2023-04-02T09:56:19.101Z,101857.28
2023-04-02T09:59:01.605Z,101853.00
2023-04-02T10:01:44.085Z,101858.19
2023-04-02T10:04:29.862Z,101858.31
2023-04-02T10:06:58.122Z,101864.56
2023-04-02T10:09:33.664Z,101866.13
2023-04-02T10:12:02.983Z,101877.94
2023-04-02T10:14:45.718Z,101866.34
2023-04-02T10:17:18.853Z,101874.69
2023-04-02T10:20:28.476Z,101865.94
2023-04-02T10:22:56.037Z,101876.88
2023-04-02T10:25:26.424Z,101875.34
2023-04-02T10:28:05.124Z,101876.16
2023-04-02T10:30:58.122Z,101879.09
2023-04-02T10:33:33.350Z,101880.91
2023-04-02T10:36:23.252Z,101884.47
2023-04-02T10:39:20.230Z,101887.06
2023-04-02T10:41:54.008Z,101900.13
2023-04-02T10:44:26.363Z,101897.56
2023-04-02T10:46:58.991Z,101900.19
2023-04-02T10:50:01.421Z,101911.47
2023-04-02T10:52:38.439Z,101907.13
2023-04-02T10:55:15.744Z,101911.50
2023-04-02T10:57:44.273Z,101916.69
2023-04-02T11:00:11.417Z,101916.69
2023-04-02T11:02:52.442Z,101913.19
2023-04-02T11:05:27.296Z,101922.78
2023-04-02T11:08:18.366Z,101930.56
2023-04-02T11:10:53.648Z,101928.81
2023-04-02T11:13:29.497Z,101937.53
2023-04-02T11:15:56.627Z,101939.28
2023-04-02T11:18:37.486Z,101958.38
2023-04-02T11:21:28.416Z,101956.63
2023-04-02T11:24:02.889Z,101955.72
2023-04-02T11:26:44.774Z,101955.72
2023-04-02T11:29:41.587Z,101963.56
2023-04-02T11:32:20.460Z,101971.41
2023-04-02T11:34:49.546Z,101967.06
2023-04-02T11:37:29.527Z,101964.41
2023-04-02T11:39:59.414Z,101984.41
2023-04-02T11:42:31.583Z,101974.00
2023-04-02T11:45:24.452Z,101975.75
2023-04-02T11:48:00.242Z,101986.19
2023-04-02T11:50:39.617Z,101988.81
2023-04-02T11:53:12.066Z,101993.16
2023-04-02T11:55:45.777Z,101995.75
2023-04-02T11:58:29.753Z,101995.75
2023-04-02T12:01:16.502Z,101997.47
2023-04-02T12:04:01.725Z,101996.59
2023-04-02T12:06:47.363Z,102008.75
2023-04-02T12:09:42.580Z,102014.84
2023-04-02T12:12:24.427Z,102014.88
2023-04-02T12:14:56.993Z,102016.63
2023-04-02T12:17:31.758Z,102014.00
2023-04-02T12:20:10.091Z,102014.91
2023-04-02T12:22:51.101Z,102009.63
2023-04-02T12:25:20.900Z,102019.19
2023-04-02T12:28:02.989Z,102006.00
2023-04-02T12:30:29.748Z,102011.22
2023-04-02T12:33:15.954Z,102014.66
2023-04-02T12:35:44.338Z,102011.19
2023-04-02T12:38:24.873Z,102022.59
2023-04-02T12:40:59.515Z,102022.63
2023-04-02T12:43:31.546Z,102030.50
2023-04-02T12:46:02.363Z,102026.16
2023-04-02T12:48:30.860Z,102030.50
2023-04-02T12:50:58.327Z,102033.13
2023-04-02T12:53:40.517Z,102028.75
2023-04-02T12:56:10.966Z,102025.22
2023-04-02T12:58:40.838Z,102019.97
2023-04-02T13:01:14.600Z,102022.50
2023-04-02T13:03:42.080Z,102020.75
2023-04-02T13:06:22.072Z,102038.97
2023-04-02T13:08:49.371Z,102027.59
2023-04-02T13:11:16.497Z,102024.91
2023-04-02T13:13:46.122Z,102038.03
2023-04-02T13:16:12.854Z,102038.72
2023-04-02T13:18:39.738Z,102032.13
2023-04-02T13:21:28.584Z,102033.44
2023-04-02T13:23:55.926Z,102044.22
2023-04-02T13:26:27.976Z,102040.31
2023-04-02T13:29:29.397Z,102040.56
2023-04-02T13:32:02.267Z,102045.06
2023-04-02T13:34:29.611Z,102035.44
2023-04-02T13:36:57.579Z,102039.91
2023-04-02T13:39:26.259Z,102044.19
2023-04-02T13:41:57.270Z,102042.28
2023-04-02T13:44:27.179Z,102044.88
2023-04-02T13:46:55.856Z,102037.06
2023-04-02T13:49:24.477Z,102045.88
2023-04-02T13:51:58.079Z,102043.38
2023-04-02T13:54:43.489Z,102053.91
2023-04-02T13:57:10.853Z,102052.22
2023-04-02T13:59:37.656Z,102052.22
2023-04-02T14:02:13.979Z,102046.91
2023-04-02T14:04:45.376Z,102038.97
2023-04-02T14:07:20.613Z,102050.94
2023-04-02T14:10:00.107Z,102055.28
2023-04-02T14:12:41.662Z,102064.22
2023-04-02T14:15:32.328Z,102057.28
2023-04-02T14:18:20.143Z,102061.63
2023-04-02T14:21:14.790Z,102069.47
2023-04-02T14:23:59.688Z,102072.06
2023-04-02T14:26:39.819Z,102072.94
2023-04-02T14:29:12.817Z,102068.47
2023-04-02T14:32:02.542Z,102084.22
2023-04-02T14:34:47.044Z,102072.09
2023-04-02T14:37:39.709Z,102086.09
2023-04-02T14:40:29.149Z,102083.50
2023-04-02T14:43:02.505Z,102091.34
2023-04-02T14:45:37.941Z,102086.97
2023-04-02T14:48:31.437Z,102084.25
2023-04-02T14:51:12.626Z,102088.56
2023-04-02T14:53:52.898Z,102093.78
2023-04-02T14:56:31.167Z,102090.38
2023-04-02T14:59:07.744Z,102094.75
2023-04-02T15:01:41.502Z,102099.91
2023-04-02T15:04:18.178Z,102099.06
2023-04-02T15:06:50.362Z,102086.97
2023-04-02T15:09:24.933Z,102100.94
2023-04-02T15:12:08.294Z,102099.22
2023-04-02T15:14:44.518Z,102113.13
2023-04-02T15:17:12.255Z,102110.53
2023-04-02T15:19:39.263Z,102113.16
2023-04-02T15:22:32.021Z,102118.34
2023-04-02T15:25:27.625Z,102118.28
2023-04-02T15:28:10.846Z,102128.59
2023-04-02T15:30:42.116Z,102125.28
2023-04-02T15:33:39.013Z,102132.28
2023-04-02T15:36:33.423Z,102137.47
2023-04-02T15:39:36.156Z,102142.72
2023-04-02T15:42:06.165Z,102153.06
2023-04-02T15:44:36.770Z,102142.69
2023-04-02T15:47:24.889Z,102153.16
2023-04-02T15:50:13.411Z,102158.38
2023-04-02T15:53:09.180Z,102158.38
2023-04-02T15:55:46.556Z,102162.72
2023-04-02T15:58:25.184Z,102172.28
2023-04-02T16:01:04.262Z,102174.84
2023-04-02T16:03:46.499Z,102180.88
2023-04-02T16:06:28.557Z,102182.53
2023-04-02T16:09:32.609Z,102180.97
2023-04-02T16:12:12.018Z,102189.69
2023-04-02T16:14:40.507Z,102188.72
2023-04-02T16:17:25.631Z,102187.88
2023-04-02T16:20:26.688Z,102197.38
2023-04-02T16:23:02.675Z,102194.91
2023-04-02T16:25:39.631Z,102203.53
2023-04-02T16:28:23.771Z,102210.38
2023-04-02T16:31:01.330Z,102219.78
2023-04-02T16:33:44.610Z,102226.06
2023-04-02T16:36:28.503Z,102225.31
2023-04-02T16:39:01.459Z,102226.16
2023-04-02T16:41:51.103Z,102248.75
2023-04-02T16:44:39.541Z,102242.56
2023-04-02T16:47:11.983Z,102249.31
2023-04-02T16:49:52.090Z,102250.03
2023-04-02T16:52:49.556Z,102255.09
2023-04-02T16:55:31.539Z,102260.19
2023-04-02T16:58:16.734Z,102260.19
2023-04-02T17:00:53.653Z,102269.72
2023-04-02T17:03:32.438Z,102267.03
2023-04-02T17:06:08.539Z,102262.63
2023-04-02T17:08:43.485Z,102279.03
2023-04-02T17:11:21.594Z,102272.06
2023-04-02T17:14:06.222Z,102283.31
2023-04-02T17:16:37.398Z,102278.91
2023-04-02T17:19:10.573Z,102286.63
2023-04-02T17:21:40.277Z,102288.31
2023-04-02T17:24:06.980Z,102289.13
2023-04-02T17:26:37.923Z,102297.66
2023-04-02T17:29:13.204Z,102304.53
2023-04-02T17:31:42.228Z,102304.41
2023-04-02T17:34:17.895Z,102313.94
2023-04-02T17:37:03.910Z,102317.31
2023-04-02T17:39:46.095Z,102326.81
2023-04-02T17:42:12.769Z,102330.22
2023-04-02T17:44:52.789Z,102331.69
2023-04-02T17:47:28.680Z,102337.75
2023-04-02T17:50:20.079Z,102346.41
2023-04-02T17:53:03.655Z,102348.06
2023-04-02T17:55:40.847Z,102355.81
2023-04-02T17:58:28.665Z,102355.69
2023-04-02T18:01:32.001Z,102351.16
2023-04-02T18:04:23.359Z,102355.56
2023-04-02T18:07:41.123Z,102358.94
2023-04-02T18:10:54.378Z,102371.84
2023-04-02T18:13:38.331Z,102372.69
2023-04-02T18:16:34.176Z,102363.09
2023-04-02T18:19:06.124Z,102377.75
2023-04-02T18:21:54.581Z,102383.84
2023-04-02T18:24:41.241Z,102394.97
2023-04-02T18:27:17.087Z,102394.94
2023-04-02T18:30:09.683Z,102401.81
2023-04-02T18:32:47.521Z,102406.88
2023-04-02T18:35:14.230Z,102406.84
2023-04-02T18:37:58.298Z,102414.59
2023-04-02T18:40:52.959Z,102412.81
2023-04-02T18:43:47.469Z,102424.84
2023-04-02T18:46:55.723Z,102426.50
2023-04-02T18:49:25.523Z,102438.47
2023-04-02T18:52:02.253Z,102432.38
2023-04-02T18:54:45.971Z,102441.84
2023-04-02T18:57:17.618Z,102443.50
2023-04-02T19:00:06.551Z,102450.41
2023-04-02T19:02:56.071Z,102451.19
2023-04-02T19:05:22.833Z,102454.47
2023-04-02T19:07:55.498Z,102454.38
2023-04-02T19:10:34.393Z,102465.59
2023-04-02T19:13:01.665Z,102467.19
2023-04-02T19:15:47.003Z,102477.53
2023-04-02T19:18:31.946Z,102479.13
2023-04-02T19:21:15.188Z,102485.16
2023-04-02T19:24:00.302Z,102486.81
2023-04-02T19:26:35.654Z,102491.88
2023-04-02T19:29:28.565Z,102493.56
2023-04-02T19:32:00.358Z,102497.91
2023-04-02T19:34:33.061Z,102488.28
2023-04-02T19:37:22.851Z,102501.19
2023-04-02T19:40:17.414Z,102501.94
2023-04-02T19:42:49.296Z,102501.81
2023-04-02T19:45:31.887Z,102512.06
2023-04-02T19:48:03.490Z,102514.63
2023-04-02T19:50:30.534Z,102510.06
2023-04-02T19:52:57.855Z,102518.53
2023-04-02T19:55:24.732Z,102524.53
2023-04-02T19:57:54.559Z,102530.56
2023-04-02T20:00:21.841Z,102530.53
2023-04-02T20:02:48.587Z,102538.22
2023-04-02T20:05:15.461Z,102544.22
2023-04-02T20:07:42.280Z,102542.44
2023-04-02T20:10:09.747Z,102550.16
2023-04-02T20:12:36.763Z,102554.31
2023-04-02T20:15:07.559Z,102548.06
2023-04-02T20:17:34.446Z,102553.19
2023-04-02T20:20:01.303Z,102550.47
2023-04-02T20:22:28.078Z,102561.66
2023-04-02T20:24:55.104Z,102557.06
2023-04-02T20:27:21.852Z,102560.44
2023-04-02T20:29:48.913Z,102568.16
2023-04-02T20:32:17.653Z,102567.25
2023-04-02T20:34:44.704Z,102574.00
2023-04-02T20:37:11.503Z,102583.41
2023-04-02T20:39:39.230Z,102579.84
2023-04-02T20:42:06.327Z,102587.38
2023-04-02T20:44:33.110Z,102591.75
2023-04-02T20:46:59.888Z,102589.91
2023-04-02T20:49:26.763Z,102591.56
2023-04-02T20:51:53.519Z,102602.59
2023-04-02T20:54:20.491Z,102596.53
2023-04-02T20:56:47.564Z,102600.78
2023-04-02T20:59:14.273Z,102604.97
2023-04-02T21:01:41.077Z,102606.63
2023-04-02T21:04:08.330Z,102609.16
2023-04-02T21:06:38.336Z,102610.84
2023-04-02T21:09:08.571Z,102612.44
2023-04-02T21:11:36.944Z,102616.66
2023-04-02T21:14:04.498Z,102621.78
2023-04-02T21:16:32.313Z,102621.38
2023-04-02T21:19:05.475Z,102628.91
2023-04-02T21:21:33.332Z,102634.13
2023-04-02T21:24:01.239Z,102632.53
2023-04-02T21:26:30.970Z,102632.41
2023-04-02T21:28:59.159Z,102639.31
2023-04-02T21:31:30.903Z,102639.25
2023-04-02T21:33:59.288Z,102642.50
2023-04-02T21:36:27.332Z,102646.75
2023-04-02T21:38:57.121Z,102645.81
2023-04-02T21:41:32.861Z,102654.31
2023-04-02T21:44:01.174Z,102658.56
2023-04-02T21:46:30.126Z,102658.50
2023-04-02T21:48:58.941Z,102667.03
2023-04-02T21:51:31.218Z,102659.88
2023-04-02T21:53:58.598Z,102662.34
2023-04-02T21:56:28.648Z,102659.69
2023-04-02T21:58:57.109Z,102664.94
2023-04-02T22:01:28.132Z,102673.50
2023-04-02T22:03:57.139Z,102674.38
2023-04-02T22:06:26.534Z,102671.66
2023-04-02T22:08:56.439Z,102676.84
2023-04-02T22:11:32.059Z,102681.78
2023-04-02T22:13:59.602Z,102681.78
2023-04-02T22:16:28.619Z,102675.69
2023-04-02T22:18:57.565Z,102682.50
2023-04-02T22:21:24.600Z,102683.25
2023-04-02T22:23:51.717Z,102681.38
2023-04-02T22:26:20.209Z,102681.38
2023-04-02T22:28:47.145Z,102683.91
2023-04-02T22:31:17.569Z,102672.69
2023-04-02T22:33:45.982Z,102686.41
2023-04-02T22:36:16.445Z,102685.53
2023-04-02T22:38:43.284Z,102686.22
2023-04-02T22:41:19.303Z,102689.63
2023-04-02T22:43:46.192Z,102693.03
2023-04-02T22:46:15.968Z,102690.47
2023-04-02T22:48:43.821Z,102695.56
2023-04-02T22:51:11.946Z,102703.38
2023-04-02T22:53:39.603Z,102702.31
2023-04-02T22:56:15.658Z,102706.66
2023-04-02T22:58:43.151Z,102712.59
2023-04-02T23:01:25.245Z,102717.66
2023-04-02T23:03:54.521Z,102719.41
2023-04-02T23:06:21.896Z,102721.16
2023-04-02T23:08:48.884Z,102727.88
2023-04-02T23:11:22.149Z,102727.88
2023-04-02T23:13:50.585Z,102728.66
2023-04-02T23:16:17.943Z,102726.94
2023-04-02T23:18:48.172Z,102729.53
2023-04-02T23:21:16.556Z,102727.75
2023-04-02T23:23:44.020Z,102728.66
2023-04-02T23:26:14.753Z,102737.16
2023-04-02T23:28:41.916Z,102735.56
2023-04-02T23:31:12.648Z,102732.09
2023-04-02T23:33:40.034Z,102736.34
2023-04-02T23:36:09.580Z,102735.34
2023-04-02T23:38:36.449Z,102732.81
2023-04-02T23:41:03.300Z,102734.56
2023-04-02T23:43:30.083Z,102736.06
2023-04-02T23:45:56.892Z,102740.41
2023-04-02T23:48:23.735Z,102742.25
2023-04-02T23:50:50.603Z,102747.38
2023-04-02T23:53:18.839Z,102748.09
2023-04-02T23:55:46.033Z,102750.69
2023-04-02T23:58:12.832Z,102744.56
